• Join FlightAware (Why Join?)
  • Login
  • US Flag 
03:45AM EST


 

Airport Tracker/Info


-or-


 

Live Flight TrackerFlight Track Log ✈ FLG3757 ✈ 18-Oct-2013 ✈ KBGM - KDTW

Flight Track Log - Related Links

Times and Time Zones

All times are in EDT time to prevent confusion due to time zone crossing. See the FLG3757 flight status page for this flight to view local times or setup timezone preferences in your user account.

Time Position Orientation Groundspeed Altitude Reporting Facility
EDT Latitude Longitude Course Direction KTS MPH feet Rate Location/Type
06:06AM 42.2361 -76.0250 290° West 152 175 3,500  Level New York Center
06:07AM 42.2519 -76.0853 290° West 197 227 5,900 2,600 Climbing New York Center
06:08AM 42.2794 -76.1714 293° West 213 245 8,700 2,477 Climbing New York Center
06:09AM 42.3183 -76.3089 291° West 270 311 12,300 2,284 Climbing Cleveland Center
06:10AM 42.3503 -76.4264 290° West 292 336 14,600 2,132 Climbing Cleveland Center
06:11AM 42.3814 -76.5328 292° West 302 348 16,600 1,918 Climbing Cleveland Center
06:12AM 42.4100 -76.6414 290° West 306 352 18,500 1,623 Climbing Cleveland Center
06:13AM 42.4397 -76.7531 290° West 315 362 19,900 1,388 Climbing Cleveland Center
06:14AM 42.4708 -76.8681 290° West 324 373 21,300 1,339 Climbing Cleveland Center
06:15AM 42.5017 -76.9861 290° West 331 381 22,600 1,131 Climbing Cleveland Center
06:16AM 42.5139 -77.1114 278° West 335 386 23,600 1,082 Climbing Cleveland Center
06:17AM 42.5233 -77.2400 276° West 342 394 24,800 1,131 Climbing Cleveland Center
06:19AM 42.5322 -77.3681 275° West 341 392 25,900 984 Climbing Cleveland Center
06:20AM 42.5417 -77.5083 275° West 343 395 26,800 893 Climbing Cleveland Center
06:21AM 42.5497 -77.6369 275° West 343 395 27,700 595 Climbing Cleveland Center
06:22AM 42.5572 -77.7689 274° West 351 404 28,000 148 Climbing Cleveland Center
06:23AM 42.5656 -77.9003 275° West 358 412 28,000  Level Cleveland Center
06:24AM 42.5736 -78.0383 275° West 365 420 28,000  Level Cleveland Center
06:25AM 42.5819 -78.1792 275° West 372 428 28,000  Level Cleveland Center
06:26AM 42.5897 -78.3164 274° West 366 421 28,000  Level Cleveland Center
06:27AM 42.5975 -78.4564 274° West 371 427 28,000  Level Cleveland Center
06:28AM 42.6064 -78.5975 275° West 377 434 28,000  Level Cleveland Center
06:29AM 42.6133 -78.7367 274° West 372 428 28,000  Level Cleveland Center
06:30AM 42.6211 -78.8772 274° West 373 429 28,000  Level Cleveland Center
06:31AM 42.6275 -79.0192 274° West 379 436 28,000  Level Cleveland Center
06:32AM 42.6364 -79.1894 274° West 378 435 28,000  Level Cleveland Center
06:33AM 42.6433 -79.3306 274° West 376 433 28,000  Level Cleveland Center
06:34AM 42.6503 -79.4719 274° West 377 434 28,000  Level Cleveland Center
06:35AM 42.6556 -79.6156 273° West 382 440 28,000  Level Cleveland Center
06:36AM 42.6622 -79.7575 274° West 378 435 28,000  Level Cleveland Center
06:37AM 42.6675 -79.8986 273° West 376 433 28,000  Level Cleveland Center
06:38AM 42.6708 -80.0361 272° West 382 440 28,000  Level Cleveland Center
06:39AM 42.6775 -80.1789 274° West 377 434 28,000  Level Cleveland Center
06:40AM 42.6842 -80.3447 273° West 376 433 28,000  Level Cleveland Center
06:41AM 42.6900 -80.4872 273° West 376 433 28,000  Level Cleveland Center
06:42AM 42.6956 -80.6314 273° West 379 436 28,000 -246 Level Cleveland Center
06:43AM 42.7011 -80.7781 273° West 387 445 27,500 -732 Descending Cleveland Center
06:44AM 42.7028 -80.9236 271° West 384 442 26,500 -976 Descending Cleveland Center
06:45AM 42.6847 -81.0617 260° West 373 429 25,500 -984 Descending Cleveland Center
06:46AM 42.6697 -81.2014 262° West 370 426 24,500 -738 Descending Cleveland Center
06:47AM 42.6528 -81.3397 261° West 369 425 24,000 -244 Descending Cleveland Center
06:48AM 42.6369 -81.4811 261° West 374 430 24,000  Level Cleveland Center
06:49AM 42.6203 -81.6219 261° West 376 433 24,000 -246 Level Cleveland Center
06:50AM 42.6028 -81.7636 261° West 377 434 23,500 -1,268 Descending Cleveland Center
06:51AM 42.5867 -81.9031 261° West 366 421 21,400 -2,000 Descending Cleveland Center
06:52AM 42.5711 -82.0303 261° West 346 398 19,400 -1,967 Descending Cleveland Center
06:53AM 42.5561 -82.1539 261° West 336 387 17,400 -2,017 Descending Cleveland Center
06:54AM 42.5406 -82.2847 261° West 326 375 15,400 -1,839 Descending Cleveland Center
06:54AM 42.5414 -82.2764 82° East 331 381 15,500 -1,869 Climbing Cleveland Center
06:55AM 42.5256 -82.4131 261° West 326 375 13,500 -1,770 Descending Cleveland Center
06:55AM 42.5250 -82.3958 93° East 326 375 13,700 -1,385 Climbing Cleveland Center
06:56AM 42.5072 -82.5392 260° West 323 372 12,000 -1,645 Descending Cleveland Center
06:56AM 42.5061 -82.5433 250° West 322 371 12,000 -387 Level Cleveland Center
06:57AM 42.4675 -82.6511 244° Southwest 327 376 11,600 -448 Descending Cleveland Center
06:57AM 42.4661 -82.6628 261° West 332 382 11,500 -1,082 Descending Cleveland Center
06:58AM 42.4317 -82.7561 243° Southwest 316 364 10,500 -1,082 Descending Cleveland Center
06:58AM 42.4292 -82.7681 254° West 268 308 10,400 -1,279 Descending Cleveland Center
06:59AM 42.4081 -82.8425 249° West 261 300 9,200 -1,475 Descending Cleveland Center
06:59AM 42.4081 -82.8586 270° West 240 276 8,900 -1,452 Descending Cleveland Center
07:00AM 42.3975 -82.9322 259° West 245 282 7,700 -1,500 Descending Cleveland Center
07:01AM 42.3936 -82.9669 261° West 243 280 7,100 -1,574 Descending Cleveland Center
07:01AM 42.3844 -83.0203 257° West 241 277 6,100 -1,200 Descending Cleveland Center
07:01AM 42.3817 -83.0444 261° West 238 274 6,000 -885 Descending Cleveland Center
07:02AM 42.3708 -83.1028 256° West 231 266 5,200 -1,400 Descending Cleveland Center
07:02AM 42.3689 -83.1303 265° West 224 258 4,600 -1,355 Descending Cleveland Center
07:03AM 42.3553 -83.1842 251° West 226 260 3,800 -1,279 Descending Cleveland Center
07:03AM 42.3481 -83.2092 249° West 219 252 3,300 -787 Descending Cleveland Center
07:04AM 42.3239 -83.2503 232° Southwest 215 247 3,000 -492 Descending Cleveland Center
07:04AM 42.3125 -83.2636 221° Southwest 172 198 2,800 -857 Descending Cleveland Center
07:05AM 42.2811 -83.2903 212° Southwest 151 174 2,200 -667 Descending Cleveland Center
07:05AM 42.2844 -83.2861 43° Northeast 189 217 2,200 -787 Level Cleveland Center
07:06AM 42.2481 -83.3139 209° Southwest 122 140 1,400 -787 Descending Cleveland Center
07:06AM 42.2461 -83.3122 148° Southeast 145 167 1,400 -358 Level Cleveland Center
07:07AM 42.2197 -83.3333 211° Southwest 134 154 1,000 -393 Descending Cleveland Center
07:09AM 42.2000 -83.3500 236° Southwest  Level FlightAware Approximate
07:16AM 42.2124 -83.3534 236° Southwest  Level Estimated